Terminal Aerodrome Forecast
Issued by NWS

Home | Current Version | Previous Version | Text Only | Print | Product List | Glossary On
Versions: 1 2 3 4 5 6 7 8 9 10 11 12 13 14 15 16 17 18 19 20 21 22 23 24
000
FTUS44 KHGX 301539 AAA
TAFUTS
TAF AMD
KUTS 301539Z 3016/0112 29011G17KT P6SM OVC100
     FM301700 27014G24KT P6SM SKC
     FM010100 VRB04KT P6SM SKC=

USA.gov is the U.S. government's official web portal to all federal, state and local government web resources and services.